Time;durP1;ratioP1;P1;durP2;ratioP2;P2;SDS_P1;SDS_P2;PMS_P1;PMS_P2;Temp;Humidity;BMP_temperature;BMP_pressure;BME280_temperature;BME280_humidity;BME280_pressure;Samples;Min_cycle;Max_cycle;Signal;HPM_P1;HPM_P2
2021/03/29 00:00:31;;;;;;;4.15;3.70;;;7.70;48.40;;;;;;5053287;28;20486;-72
2021/03/29 00:02:58;;;;;;;5.07;3.80;;;7.60;48.40;;;;;;5052023;28;20059;-72
2021/03/29 00:05:27;;;;;;;6.13;4.13;;;7.60;48.40;;;;;;5051955;28;20041;-72
2021/03/29 00:08:26;;;;;;;4.60;3.85;;;7.60;49.00;;;;;;5053130;28;20437;-72
2021/03/29 00:10:54;;;;;;;8.07;4.45;;;7.60;48.20;;;;;;5056149;28;20139;-71
2021/03/29 00:13:22;;;;;;;5.95;4.30;;;7.50;48.20;;;;;;5055268;28;20053;-72
2021/03/29 00:15:53;;;;;;;5.18;4.20;;;7.50;48.30;;;;;;5053101;28;20029;-72
2021/03/29 00:18:20;;;;;;;6.30;4.43;;;7.50;48.30;;;;;;5053447;28;20159;-72
2021/03/29 00:21:06;;;;;;;6.10;3.90;;;7.50;48.30;;;;;;5051727;28;20098;-72
2021/03/29 00:23:33;;;;;;;5.82;4.70;;;7.40;48.30;;;;;;5052900;28;20562;-72
2021/03/29 00:25:59;;;;;;;5.95;4.55;;;7.40;48.30;;;;;;5052682;28;20051;-72
2021/03/29 00:28:25;;;;;;;8.50;4.60;;;7.40;48.30;;;;;;5051420;28;20036;-72
2021/03/29 00:30:51;;;;;;;6.15;4.00;;;7.40;48.40;;;;;;5052873;28;20127;-72
2021/03/29 00:33:19;;;;;;;7.80;4.82;;;7.30;48.40;;;;;;5052694;28;20131;-74
2021/03/29 00:35:48;;;;;;;6.65;4.10;;;7.30;48.40;;;;;;5068108;28;20032;-72
2021/03/29 00:38:16;;;;;;;7.45;4.50;;;7.30;48.50;;;;;;5052549;28;20063;-72
2021/03/29 00:40:50;;;;;;;5.22;3.92;;;7.20;48.60;;;;;;5052728;28;20044;-72
2021/03/29 00:43:21;;;;;;;6.88;4.60;;;7.30;49.10;;;;;;5052536;28;20127;-71
2021/03/29 00:45:48;;;;;;;5.85;4.25;;;7.20;48.50;;;;;;5051909;28;20103;-72
2021/03/29 00:48:17;;;;;;;8.20;4.93;;;7.20;48.60;;;;;;5052837;28;20047;-73
2021/03/29 00:51:04;;;;;;;7.15;4.93;;;7.10;48.60;;;;;;5051788;28;20047;-73
2021/03/29 00:53:31;;;;;;;5.53;4.63;;;7.20;48.60;;;;;;5052733;28;20091;-71
2021/03/29 00:55:57;;;;;;;6.53;4.50;;;7.10;48.60;;;;;;5052573;28;20041;-71
2021/03/29 00:58:25;;;;;;;5.85;4.40;;;7.10;48.70;;;;;;5052377;28;20056;-72
2021/03/29 01:00:56;;;;;;;6.78;4.18;;;7.10;48.70;;;;;;5052490;28;20039;-72
2021/03/29 01:03:33;;;;;;;5.20;4.13;;;7.10;48.90;;;;;;5054310;28;20111;-73
2021/03/29 01:06:08;;;;;;;5.97;4.40;;;7.00;48.90;;;;;;5063935;28;20047;-72
2021/03/29 01:08:37;;;;;;;6.63;4.10;;;7.00;48.90;;;;;;5052785;28;20029;-73
2021/03/29 01:11:05;;;;;;;6.53;4.28;;;7.00;48.90;;;;;;5051598;28;20445;-73
2021/03/29 01:13:34;;;;;;;6.72;3.75;;;7.00;49.00;;;;;;5052298;28;20451;-72
2021/03/29 01:16:05;;;;;;;5.60;4.07;;;7.00;49.00;;;;;;5051187;28;20513;-73
2021/03/29 01:18:33;;;;;;;5.53;4.00;;;6.90;49.10;;;;;;5051080;28;20477;-73
2021/03/29 01:21:12;;;;;;;7.63;4.05;;;6.90;49.10;;;;;;5050921;28;20045;-72
2021/03/29 01:23:39;;;;;;;6.50;3.70;;;6.90;49.10;;;;;;5052447;28;20398;-70
2021/03/29 01:26:41;;;;;;;6.47;3.67;;;6.90;49.10;;;;;;5052244;28;20037;-72
2021/03/29 01:29:09;;;;;;;4.75;3.47;;;6.90;49.10;;;;;;5040729;28;20037;-72
2021/03/29 01:31:37;;;;;;;6.00;4.40;;;6.90;49.20;;;;;;5051256;28;20033;-72
2021/03/29 01:34:05;;;;;;;6.63;3.97;;;6.80;49.20;;;;;;5050942;28;20566;-73
2021/03/29 01:36:32;;;;;;;6.20;3.88;;;6.80;49.30;;;;;;5051785;28;20140;-71
2021/03/29 01:38:59;;;;;;;4.97;4.20;;;6.70;49.20;;;;;;5050860;28;20386;-72
2021/03/29 01:41:26;;;;;;;5.07;3.70;;;6.70;49.20;;;;;;5051944;28;20405;-72
2021/03/29 01:43:54;;;;;;;5.88;3.85;;;6.70;49.20;;;;;;5052653;28;20033;-71
2021/03/29 01:46:21;;;;;;;6.78;4.18;;;6.70;49.10;;;;;;5056176;28;20032;-73
2021/03/29 01:48:48;;;;;;;6.43;4.00;;;6.60;49.20;;;;;;5054625;28;20079;-73
2021/03/29 01:51:17;;;;;;;4.45;3.53;;;6.60;49.20;;;;;;5054884;28;20086;-73
2021/03/29 01:53:44;;;;;;;6.68;4.30;;;6.60;49.20;;;;;;5055558;28;20099;-72
2021/03/29 01:56:11;;;;;;;6.13;3.63;;;6.60;49.30;;;;;;5055372;28;20094;-74
2021/03/29 01:58:38;;;;;;;4.95;3.55;;;6.60;49.30;;;;;;5054313;28;20037;-73
2021/03/29 02:01:07;;;;;;;5.03;3.50;;;6.60;49.30;;;;;;5055498;28;20079;-72
2021/03/29 02:03:34;;;;;;;6.22;3.65;;;6.60;49.30;;;;;;5055262;28;20025;-72
2021/03/29 02:06:01;;;;;;;4.55;3.15;;;6.60;49.30;;;;;;5045283;28;20067;-71
2021/03/29 02:08:29;;;;;;;5.63;3.58;;;6.50;49.30;;;;;;5061132;28;20045;-73
2021/03/29 02:10:56;;;;;;;6.25;3.65;;;6.50;49.20;;;;;;5055345;28;20508;-73
2021/03/29 02:13:28;;;;;;;8.05;3.97;;;6.40;49.20;;;;;;5055327;28;20040;-72
2021/03/29 02:16:07;;;;;;;4.68;3.63;;;6.50;49.20;;;;;;5054086;28;20065;-72
2021/03/29 02:18:39;;;;;;;7.97;3.50;;;6.40;49.20;;;;;;5055319;28;20076;-73
2021/03/29 02:21:08;;;;;;;4.10;3.22;;;6.40;49.20;;;;;;5070548;28;20033;-73
2021/03/29 02:23:36;;;;;;;5.18;3.05;;;6.40;49.20;;;;;;5054718;28;20059;-71
2021/03/29 02:26:05;;;;;;;4.55;3.22;;;6.40;49.20;;;;;;5054990;28;20043;-72
2021/03/29 02:28:32;;;;;;;6.15;3.35;;;6.40;49.20;;;;;;5053650;28;20036;-72
2021/03/29 02:31:00;;;;;;;6.15;3.30;;;6.40;49.20;;;;;;5053533;28;20037;-72
2021/03/29 02:33:27;;;;;;;9.00;3.50;;;6.40;49.20;;;;;;5054701;28;20040;-73
2021/03/29 02:35:54;;;;;;;7.43;3.30;;;6.40;49.20;;;;;;5054735;28;20041;-72
2021/03/29 02:38:20;;;;;;;4.95;3.08;;;6.30;49.20;;;;;;5070041;28;20048;-74
2021/03/29 02:40:52;;;;;;;5.25;3.15;;;6.30;49.10;;;;;;5054721;28;20032;-72
2021/03/29 02:43:20;;;;;;;3.90;2.92;;;6.30;49.10;;;;;;5054887;28;20036;-72
2021/03/29 02:45:54;;;;;;;6.45;3.55;;;6.30;49.20;;;;;;5054384;28;20489;-72
2021/03/29 02:48:26;;;;;;;6.53;3.45;;;6.30;49.20;;;;;;5054520;28;20046;-73
2021/03/29 02:50:56;;;;;;;7.38;3.22;;;6.30;49.10;;;;;;5054503;28;20037;-72
2021/03/29 02:53:30;;;;;;;6.40;2.95;;;6.30;49.00;;;;;;5054676;28;20037;-73
2021/03/29 02:56:00;;;;;;;5.80;3.58;;;6.30;49.10;;;;;;5053717;28;20481;-71
2021/03/29 02:58:29;;;;;;;5.72;3.55;;;6.20;49.00;;;;;;5053322;28;20048;-70
2021/03/29 03:00:56;;;;;;;4.18;3.05;;;6.30;48.90;;;;;;5054364;28;20127;-71
2021/03/29 03:03:22;;;;;;;5.85;3.50;;;6.20;49.00;;;;;;5053068;28;20127;-71
2021/03/29 03:05:51;;;;;;;7.13;3.15;;;6.20;49.00;;;;;;5057299;28;20033;-72
2021/03/29 03:08:18;;;;;;;6.50;3.08;;;6.20;49.00;;;;;;5062741;28;20037;-71
2021/03/29 03:10:44;;;;;;;5.00;3.00;;;6.20;49.00;;;;;;5054132;28;20037;-72
2021/03/29 03:13:10;;;;;;;4.20;3.38;;;6.20;49.00;;;;;;5054092;28;20110;-72
2021/03/29 03:15:38;;;;;;;4.82;3.40;;;6.20;49.00;;;;;;5055856;28;20032;-71
2021/03/29 03:18:06;;;;;;;5.32;3.35;;;6.20;49.10;;;;;;5063311;28;20044;-73
2021/03/29 03:20:34;;;;;;;4.53;2.97;;;6.10;49.00;;;;;;5057705;28;20114;-72
2021/03/29 03:23:07;;;;;;;7.03;3.03;;;6.10;49.00;;;;;;5052685;28;20082;-72
2021/03/29 03:25:36;;;;;;;12.45;3.42;;;6.10;49.00;;;;;;5052856;28;20071;-70
2021/03/29 03:28:04;;;;;;;8.65;3.33;;;6.10;49.10;;;;;;5062456;28;20037;-71
2021/03/29 03:30:36;;;;;;;6.15;3.28;;;6.10;49.10;;;;;;5072727;28;20044;-71
2021/03/29 03:33:05;;;;;;;6.72;3.50;;;6.10;49.00;;;;;;5073357;28;20039;-72
2021/03/29 03:35:32;;;;;;;6.32;3.10;;;6.10;49.00;;;;;;5073279;28;20403;-71
2021/03/29 03:38:01;;;;;;;5.78;3.05;;;6.10;49.10;;;;;;5073582;28;20103;-71
2021/03/29 03:40:29;;;;;;;6.80;3.20;;;6.10;49.20;;;;;;5071128;28;20119;-72
2021/03/29 03:42:59;;;;;;;5.03;3.65;;;6.20;49.10;;;;;;5072479;28;20058;-73
2021/03/29 03:45:29;;;;;;;4.13;3.30;;;6.20;49.00;;;;;;5086008;28;20490;-72
2021/03/29 03:47:57;;;;;;;8.07;3.35;;;6.10;48.90;;;;;;5088419;28;20040;-71
2021/03/29 03:50:24;;;;;;;6.10;2.83;;;6.20;48.90;;;;;;5069796;28;20563;-71
2021/03/29 03:52:51;;;;;;;4.88;2.90;;;6.20;48.80;;;;;;5072844;28;20090;-73
2021/03/29 03:55:18;;;;;;;4.13;2.90;;;6.30;48.80;;;;;;5071391;28;20041;-70
2021/03/29 03:57:45;;;;;;;8.20;3.35;;;6.20;48.70;;;;;;5071095;28;20040;-70
2021/03/29 04:00:15;;;;;;;5.50;3.05;;;6.30;48.60;;;;;;5072709;28;20040;-71
2021/03/29 04:02:41;;;;;;;7.43;3.60;;;6.30;48.60;;;;;;5054290;28;20060;-73
2021/03/29 04:05:11;;;;;;;6.10;3.40;;;6.40;48.50;;;;;;5071294;28;20502;-71
2021/03/29 04:07:37;;;;;;;5.25;3.00;;;6.30;48.40;;;;;;5069171;28;20058;-70
2021/03/29 04:10:14;;;;;;;6.55;3.20;;;6.30;48.40;;;;;;5071468;28;20445;-72
2021/03/29 04:12:42;;;;;;;7.53;3.22;;;6.30;48.30;;;;;;5070592;28;20111;-71
2021/03/29 04:15:08;;;;;;;5.05;2.92;;;6.40;48.40;;;;;;5070299;28;20036;-70
2021/03/29 04:17:34;;;;;;;7.18;3.30;;;6.40;48.30;;;;;;5068217;28;20485;-68
2021/03/29 04:20:00;;;;;;;7.05;3.50;;;6.40;48.20;;;;;;5076893;28;20047;-71
2021/03/29 04:22:26;;;;;;;5.80;2.90;;;6.40;48.10;;;;;;5070393;28;20036;-74
2021/03/29 04:24:52;;;;;;;7.28;3.03;;;6.40;48.10;;;;;;5064094;28;20024;-73
2021/03/29 04:27:18;;;;;;;7.00;3.10;;;6.50;48.20;;;;;;5056263;28;20037;-73
2021/03/29 04:29:44;;;;;;;6.00;3.67;;;6.50;48.10;;;;;;5061426;28;20068;-74
2021/03/29 04:32:10;;;;;;;5.78;3.30;;;6.50;48.00;;;;;;5051792;28;20095;-74
2021/03/29 04:34:36;;;;;;;9.45;3.65;;;6.50;48.00;;;;;;5051469;28;20033;-75
2021/03/29 04:37:02;;;;;;;8.23;3.28;;;6.50;47.80;;;;;;5052801;28;20102;-76
2021/03/29 04:39:28;;;;;;;5.78;2.90;;;6.60;47.70;;;;;;5052369;28;20501;-72
2021/03/29 04:41:54;;;;;;;3.85;2.75;;;6.60;47.70;;;;;;5061695;28;20429;-79
2021/03/29 04:44:20;;;;;;;6.70;2.80;;;6.60;47.60;;;;;;5074730;28;20028;-78
2021/03/29 04:46:46;;;;;;;6.30;3.22;;;6.60;47.60;;;;;;5074363;28;20378;-80
2021/03/29 04:49:12;;;;;;;5.22;3.42;;;6.70;47.40;;;;;;5073321;28;20031;-80
2021/03/29 04:51:38;;;;;;;11.40;3.22;;;6.70;47.30;;;;;;5080468;28;20041;-83
2021/03/29 04:54:06;;;;;;;7.72;3.15;;;6.70;47.30;;;;;;5081496;28;20048;-82
2021/03/29 04:56:33;;;;;;;8.95;4.15;;;6.70;47.30;;;;;;5083671;28;20068;-80
2021/03/29 04:58:59;;;;;;;5.28;3.50;;;6.70;47.40;;;;;;5075412;28;20028;-80
2021/03/29 05:01:25;;;;;;;8.30;3.40;;;6.80;47.40;;;;;;5072852;28;20037;-77
2021/03/29 05:03:51;;;;;;;4.63;2.97;;;6.80;47.30;;;;;;5074346;28;20062;-77
2021/03/29 05:06:17;;;;;;;10.63;3.35;;;6.80;47.10;;;;;;5074411;28;20106;-74
2021/03/29 05:08:43;;;;;;;8.18;3.40;;;6.80;47.30;;;;;;5075115;28;20079;-74
2021/03/29 05:11:10;;;;;;;8.55;3.53;;;6.90;48.30;;;;;;5078637;28;20049;-77
2021/03/29 05:13:39;;;;;;;5.25;3.00;;;6.90;48.70;;;;;;5079986;28;20029;-76
2021/03/29 05:16:05;;;;;;;8.18;3.30;;;6.90;49.30;;;;;;5076730;28;20094;-76
2021/03/29 05:18:31;;;;;;;7.22;3.45;;;7.00;49.40;;;;;;5075365;28;20177;-76
2021/03/29 05:20:57;;;;;;;8.73;3.38;;;7.10;49.30;;;;;;5078972;28;20032;-72
2021/03/29 05:23:23;;;;;;;7.82;3.30;;;7.50;49.00;;;;;;5082223;28;20499;-79
2021/03/29 05:25:49;;;;;;;4.00;2.83;;;7.90;48.20;;;;;;5081918;28;20051;-76
2021/03/29 05:28:15;;;;;;;7.15;3.05;;;8.40;47.60;;;;;;5084630;28;20029;-79
2021/03/29 05:30:41;;;;;;;4.22;2.90;;;8.90;46.20;;;;;;5083451;28;20031;-81
2021/03/29 05:33:07;;;;;;;8.55;3.38;;;9.40;45.90;;;;;;5084472;28;20088;-81
2021/03/29 05:35:33;;;;;;;7.95;3.22;;;9.90;44.90;;;;;;5083603;28;20158;-79
2021/03/29 05:37:59;;;;;;;7.63;3.42;;;10.40;43.90;;;;;;5084325;28;20062;-77
2021/03/29 05:40:25;;;;;;;6.07;3.13;;;10.90;43.10;;;;;;5083681;28;20076;-79
2021/03/29 05:42:52;;;;;;;11.27;4.05;;;11.30;42.70;;;;;;5085688;28;20094;-80
2021/03/29 05:45:18;;;;;;;7.43;3.33;;;11.80;41.80;;;;;;5085516;28;20115;-79
2021/03/29 05:47:45;;;;;;;7.97;3.63;;;12.30;41.30;;;;;;5083005;28;20045;-78
2021/03/29 05:50:15;;;;;;;9.82;3.67;;;12.70;40.60;;;;;;5084262;28;20118;-78
2021/03/29 05:52:42;;;;;;;6.38;3.25;;;13.20;39.60;;;;;;5083825;28;20037;-78
2021/03/29 05:55:13;;;;;;;6.93;3.85;;;13.60;38.80;;;;;;5084260;28;20028;-78
2021/03/29 06:00:34;;;;;;;5.00;3.30;;;14.50;37.70;;;;;;5084288;28;20033;-78
2021/03/29 06:03:26;;;;;;;8.85;4.07;;;15.00;36.90;;;;;;5083988;28;20036;-77
2021/03/29 06:06:12;;;;;;;10.02;3.40;;;15.40;35.90;;;;;;5084034;28;20032;-77
2021/03/29 06:08:43;;;;;;;6.03;3.08;;;15.80;35.10;;;;;;5076558;28;20050;-79
2021/03/29 06:11:28;;;;;;;5.63;3.83;;;16.00;34.80;;;;;;5083291;28;20393;-76
2021/03/29 06:14:16;;;;;;;11.10;4.03;;;16.30;34.20;;;;;;5076995;28;20060;-69
2021/03/29 06:17:11;;;;;;;6.50;3.42;;;16.70;34.80;;;;;;5075282;28;20040;-73
2021/03/29 06:19:58;;;;;;;8.55;3.50;;;17.20;35.20;;;;;;5075028;28;20040;-75
2021/03/29 06:22:36;;;;;;;4.47;3.47;;;17.20;34.40;;;;;;5075387;28;20033;-73
2021/03/29 06:25:20;;;;;;;7.55;3.83;;;17.30;34.60;;;;;;5074768;28;20056;-74
2021/03/29 06:27:46;;;;;;;6.22;3.47;;;17.50;34.50;;;;;;5074853;28;20036;-72
2021/03/29 06:30:26;;;;;;;7.85;3.40;;;17.50;32.60;;;;;;5074399;28;20044;-72
2021/03/29 06:33:12;;;;;;;6.47;3.47;;;17.80;34.30;;;;;;5073500;28;20039;-71
2021/03/29 06:35:40;;;;;;;6.03;3.20;;;18.00;32.60;;;;;;5073718;28;20401;-71
2021/03/29 06:38:08;;;;;;;4.25;3.40;;;18.10;33.00;;;;;;5074531;28;20052;-62
2021/03/29 06:40:37;;;;;;;10.18;3.50;;;18.30;33.00;;;;;;5074371;28;20040;-62
2021/03/29 06:43:39;;;;;;;5.20;3.25;;;18.60;33.00;;;;;;5074538;28;20446;-61
2021/03/29 06:46:34;;;;;;;8.23;3.65;;;19.00;33.00;;;;;;5068785;28;20528;-62
2021/03/29 06:49:01;;;;;;;11.05;4.28;;;19.30;32.00;;;;;;5043805;28;20044;-62
2021/03/29 06:51:31;;;;;;;5.03;3.28;;;19.50;33.30;;;;;;5074236;28;20055;-63
2021/03/29 06:53:59;;;;;;;6.65;3.38;;;19.80;31.20;;;;;;5074085;28;20032;-62
2021/03/29 06:56:44;;;;;;;6.15;3.40;;;19.90;31.30;;;;;;5074035;28;20036;-61
2021/03/29 06:59:24;;;;;;;6.13;3.00;;;20.00;32.10;;;;;;5074023;28;20033;-62
2021/03/29 07:01:52;;;;;;;4.90;2.45;;;20.30;31.10;;;;;;5074464;28;20032;-62
2021/03/29 07:04:20;;;;;;;3.85;2.70;;;20.40;31.50;;;;;;5074127;28;20079;-63
2021/03/29 07:06:47;;;;;;;3.65;2.28;;;20.60;31.60;;;;;;5074098;28;20123;-62
2021/03/29 07:09:13;;;;;;;6.35;3.13;;;20.70;30.10;;;;;;5074306;28;20507;-62
2021/03/29 07:11:41;;;;;;;5.13;2.60;;;20.40;30.70;;;;;;5073729;28;20447;-61
2021/03/29 07:14:08;;;;;;;8.25;2.78;;;20.50;30.70;;;;;;5073548;28;20066;-62
2021/03/29 07:16:34;;;;;;;5.00;2.72;;;20.50;29.50;;;;;;5073744;28;20484;-61
2021/03/29 07:19:05;;;;;;;6.75;2.95;;;20.60;29.70;;;;;;5073872;28;20029;-63
2021/03/29 07:21:32;;;;;;;5.68;2.15;;;20.80;30.00;;;;;;5073979;28;20025;-63
2021/03/29 07:24:10;;;;;;;4.32;2.55;;;20.90;30.20;;;;;;5073856;28;20044;-61
2021/03/29 07:26:58;;;;;;;6.00;2.20;;;21.10;29.90;;;;;;5073725;28;20055;-63
2021/03/29 07:29:28;;;;;;;6.55;2.30;;;21.20;28.70;;;;;;5072398;28;20036;-61
2021/03/29 07:32:02;;;;;;;5.40;2.17;;;21.30;29.80;;;;;;5073659;28;20070;-61
2021/03/29 07:34:48;;;;;;;3.15;1.90;;;21.30;28.50;;;;;;5073459;28;20126;-60
2021/03/29 07:37:40;;;;;;;4.75;1.80;;;20.80;27.90;;;;;;5073617;28;20056;-61
2021/03/29 07:40:15;;;;;;;7.00;1.95;;;20.60;28.60;;;;;;5074279;28;20048;-73
2021/03/29 07:42:44;;;;;;;3.20;1.58;;;20.40;26.90;;;;;;5073400;28;20123;-74
2021/03/29 07:45:12;;;;;;;2.28;1.27;;;19.90;26.60;;;;;;5072870;28;20047;-73
2021/03/29 07:47:52;;;;;;;2.88;1.35;;;19.60;26.00;;;;;;5073987;28;20032;-73
2021/03/29 07:50:24;;;;;;;4.53;1.33;;;19.20;26.20;;;;;;5074319;28;20143;-73
2021/03/29 07:53:01;;;;;;;2.38;1.55;;;19.40;26.10;;;;;;5073239;28;20123;-70
2021/03/29 07:55:48;;;;;;;2.28;1.23;;;19.20;25.70;;;;;;5073664;28;20033;-69
2021/03/29 07:58:21;;;;;;;2.17;1.58;;;18.80;26.20;;;;;;5072746;28;20072;-70
2021/03/29 08:00:58;;;;;;;3.30;1.60;;;18.70;26.30;;;;;;5071596;28;20079;-70
2021/03/29 08:03:24;;;;;;;4.05;1.73;;;18.50;25.70;;;;;;5071828;28;20123;-69
2021/03/29 08:05:52;;;;;;;2.53;1.48;;;18.60;26.10;;;;;;5071774;28;20128;-70
2021/03/29 08:08:27;;;;;;;2.03;1.50;;;18.70;26.50;;;;;;5071799;28;20044;-70
2021/03/29 08:11:02;;;;;;;4.00;2.28;;;18.60;26.00;;;;;;5072953;28;20032;-70
2021/03/29 08:13:57;;;;;;;3.63;1.75;;;18.40;26.00;;;;;;5054781;28;20059;-70
2021/03/29 08:16:28;;;;;;;7.25;2.05;;;18.10;26.30;;;;;;5042283;28;20064;-70
2021/03/29 08:19:20;;;;;;;2.95;1.30;;;18.20;26.50;;;;;;5071446;28;20086;-69
2021/03/29 08:21:55;;;;;;;3.10;1.58;;;18.30;26.30;;;;;;5054832;28;20032;-71
2021/03/29 08:24:35;;;;;;;3.40;1.58;;;18.30;26.30;;;;;;5071456;28;20068;-69
2021/03/29 08:27:20;;;;;;;4.75;1.42;;;18.20;26.50;;;;;;5071420;28;20111;-69
2021/03/29 08:29:53;;;;;;;3.42;1.50;;;18.20;26.60;;;;;;5071471;28;20491;-70
2021/03/29 08:32:36;;;;;;;4.15;1.17;;;18.20;27.00;;;;;;5054539;28;20024;-70
2021/03/29 08:35:05;;;;;;;2.00;1.27;;;18.20;26.30;;;;;;5072617;28;20063;-69
2021/03/29 08:37:34;;;;;;;3.45;1.70;;;18.20;26.50;;;;;;5071054;28;20044;-68
2021/03/29 08:40:08;;;;;;;4.13;1.88;;;17.90;26.30;;;;;;5072471;28;20097;-71
2021/03/29 08:42:35;;;;;;;3.03;1.75;;;17.90;26.40;;;;;;5071349;28;20028;-72
2021/03/29 08:45:07;;;;;;;3.45;1.65;;;17.80;26.60;;;;;;5054329;28;20036;-71
2021/03/29 08:47:37;;;;;;;2.83;1.80;;;17.60;26.20;;;;;;5071364;28;20043;-71
2021/03/29 08:50:11;;;;;;;2.80;1.80;;;17.60;26.50;;;;;;5071159;28;20056;-70
2021/03/29 08:52:47;;;;;;;2.47;1.50;;;17.60;26.30;;;;;;5071966;28;20037;-72
2021/03/29 08:55:20;;;;;;;4.32;1.40;;;17.70;26.10;;;;;;5076860;28;20044;-70
2021/03/29 08:57:47;;;;;;;2.22;1.38;;;17.50;26.00;;;;;;5076360;28;20072;-69
2021/03/29 09:00:24;;;;;;;2.42;1.48;;;17.40;26.10;;;;;;5075810;28;20052;-69
2021/03/29 09:02:50;;;;;;;10.07;6.13;;;17.30;26.60;;;;;;5075970;28;20078;-69
2021/03/29 09:05:18;;;;;;;5.00;3.17;;;17.40;26.90;;;;;;5074603;28;20113;-71
2021/03/29 09:07:51;;;;;;;6.05;2.63;;;17.40;26.90;;;;;;5074719;28;20086;-70
2021/03/29 09:10:24;;;;;;;2.92;1.70;;;17.20;26.30;;;;;;5074754;28;20032;-69
2021/03/29 09:12:58;;;;;;;4.60;1.80;;;17.30;26.70;;;;;;5076257;28;20079;-72
2021/03/29 09:15:26;;;;;;;4.43;1.63;;;17.30;26.70;;;;;;5091611;28;20032;-71
2021/03/29 09:18:02;;;;;;;3.58;1.25;;;16.90;26.10;;;;;;5057863;28;20517;-71
2021/03/29 09:20:42;;;;;;;2.08;1.15;;;16.80;26.80;;;;;;5074887;28;20041;-72
2021/03/29 09:23:13;;;;;;;4.05;1.33;;;16.80;26.80;;;;;;5074556;28;20060;-70
2021/03/29 09:25:43;;;;;;;2.38;1.30;;;16.70;27.10;;;;;;5074557;28;20123;-70
2021/03/29 09:28:34;;;;;;;1.92;1.20;;;16.60;27.10;;;;;;5076106;28;20123;-70
2021/03/29 09:31:28;;;;;;;2.90;1.45;;;16.50;27.00;;;;;;5075692;28;20086;-69
2021/03/29 09:33:56;;;;;;;2.30;1.05;;;16.10;27.20;;;;;;5074252;28;20032;-71
2021/03/29 09:36:23;;;;;;;2.95;1.17;;;16.10;27.30;;;;;;5073926;28;20151;-69
2021/03/29 09:39:00;;;;;;;3.92;1.30;;;16.00;27.30;;;;;;5075659;28;20150;-70
2021/03/29 09:41:31;;;;;;;2.97;1.10;;;15.90;27.20;;;;;;5075610;28;20092;-69
2021/03/29 09:44:04;;;;;;;2.00;1.40;;;15.60;26.80;;;;;;5074386;28;20109;-70
2021/03/29 09:46:32;;;;;;;2.17;1.38;;;15.30;27.10;;;;;;5074213;28;20045;-70
2021/03/29 09:49:04;;;;;;;3.63;1.40;;;15.20;27.50;;;;;;5057431;28;20086;-69
2021/03/29 09:51:31;;;;;;;3.00;1.27;;;15.10;27.40;;;;;;5075546;28;20040;-71
2021/03/29 09:53:56;;;;;;;2.28;1.35;;;14.90;27.30;;;;;;5075329;28;20064;-71
2021/03/29 09:56:31;;;;;;;3.65;1.30;;;14.70;27.30;;;;;;5073831;28;20472;-70
2021/03/29 09:58:59;;;;;;;2.10;1.23;;;14.40;27.60;;;;;;5057024;28;20040;-70
2021/03/29 10:01:27;;;;;;;1.92;1.02;;;14.40;27.90;;;;;;5074798;28;20052;-72
2021/03/29 10:04:00;;;;;;;3.28;1.33;;;14.30;27.80;;;;;;5073576;28;20516;-72
2021/03/29 10:06:29;;;;;;;3.88;1.40;;;14.00;27.60;;;;;;5072881;28;20028;-72
2021/03/29 10:09:05;;;;;;;3.03;1.40;;;13.80;27.80;;;;;;5056717;28;20064;-72
2021/03/29 10:11:49;;;;;;;1.63;1.10;;;13.50;28.20;;;;;;5073659;28;20524;-71
2021/03/29 10:14:16;;;;;;;4.05;1.60;;;13.30;28.30;;;;;;5057046;28;20484;-72
2021/03/29 10:16:51;;;;;;;4.85;1.60;;;13.10;28.50;;;;;;5074766;28;20115;-71
2021/03/29 10:19:21;;;;;;;1.63;1.30;;;13.10;28.90;;;;;;5073528;28;20051;-70
2021/03/29 10:22:09;;;;;;;2.00;1.50;;;12.70;29.00;;;;;;5074661;28;20528;-71
2021/03/29 10:24:37;;;;;;;1.83;1.52;;;12.80;29.30;;;;;;5074430;28;20496;-70
2021/03/29 10:27:08;;;;;;;3.22;1.50;;;12.70;29.20;;;;;;5074478;28;20134;-70
2021/03/29 10:29:40;;;;;;;3.92;1.60;;;12.70;29.30;;;;;;5073091;28;20036;-72
2021/03/29 10:32:15;;;;;;;2.40;1.25;;;12.70;29.50;;;;;;5072966;28;20039;-69
2021/03/29 10:34:44;;;;;;;3.13;1.60;;;12.70;29.60;;;;;;5072650;28;20024;-71
2021/03/29 10:37:25;;;;;;;5.25;1.65;;;12.70;29.70;;;;;;5073057;28;20053;-70
2021/03/29 10:39:52;;;;;;;3.33;2.20;;;12.50;29.60;;;;;;5074034;28;20086;-70
2021/03/29 10:42:20;;;;;;;4.93;1.70;;;12.30;29.90;;;;;;5074225;28;20071;-70
2021/03/29 10:44:46;;;;;;;7.32;2.33;;;12.30;30.10;;;;;;5055934;28;20489;-71
2021/03/29 10:47:13;;;;;;;2.97;1.60;;;12.00;30.10;;;;;;5072788;28;20218;-71
2021/03/29 10:49:39;;;;;;;8.50;2.22;;;12.00;30.60;;;;;;5073921;28;20032;-72
2021/03/29 10:52:06;;;;;;;2.92;2.08;;;11.70;30.90;;;;;;5073998;28;20102;-70
2021/03/29 10:54:33;;;;;;;4.53;1.88;;;11.80;31.00;;;;;;5072533;28;20593;-71
2021/03/29 10:56:58;;;;;;;5.35;1.95;;;11.80;31.00;;;;;;5074209;28;20052;-71
2021/03/29 10:59:24;;;;;;;3.45;2.22;;;11.90;31.10;;;;;;5073933;28;20048;-71
2021/03/29 11:01:51;;;;;;;3.25;2.05;;;11.90;31.10;;;;;;5073688;28;20089;-72
2021/03/29 11:04:17;;;;;;;3.60;2.08;;;11.90;31.30;;;;;;5074249;28;20059;-70
2021/03/29 11:06:43;;;;;;;3.95;2.38;;;11.80;31.30;;;;;;5073887;28;20043;-71
2021/03/29 11:09:09;;;;;;;4.82;2.13;;;11.80;31.50;;;;;;5072291;28;20029;-69
2021/03/29 11:11:35;;;;;;;4.80;2.60;;;11.90;31.50;;;;;;5072530;28;20048;-70
2021/03/29 11:14:03;;;;;;;5.78;2.38;;;11.80;31.60;;;;;;5072616;28;20490;-71
2021/03/29 11:16:30;;;;;;;4.20;2.40;;;11.80;31.40;;;;;;5071500;28;20469;-69
2021/03/29 11:18:55;;;;;;;5.13;2.38;;;11.80;31.60;;;;;;5073111;28;20040;-71
2021/03/29 11:21:22;;;;;;;6.82;2.30;;;11.70;31.60;;;;;;5072246;28;20049;-70
2021/03/29 11:23:48;;;;;;;5.45;2.55;;;11.60;32.00;;;;;;5072434;28;20040;-71
2021/03/29 11:26:14;;;;;;;6.38;2.30;;;11.40;31.80;;;;;;5089134;28;20447;-71
2021/03/29 11:28:41;;;;;;;4.95;2.40;;;11.40;32.20;;;;;;5073873;28;20225;-70
2021/03/29 11:31:08;;;;;;;5.80;2.70;;;11.50;32.10;;;;;;5073298;28;20075;-72
2021/03/29 11:33:37;;;;;;;7.20;2.50;;;11.50;32.00;;;;;;5072210;28;20032;-73
2021/03/29 11:36:03;;;;;;;5.15;2.25;;;11.60;32.10;;;;;;5071763;28;20063;-71
2021/03/29 11:38:29;;;;;;;3.75;2.40;;;11.60;32.20;;;;;;5072275;28;20404;-70
2021/03/29 11:40:55;;;;;;;6.55;2.55;;;11.50;32.90;;;;;;5073258;28;20107;-71
2021/03/29 11:43:21;;;;;;;5.13;1.98;;;11.60;32.40;;;;;;5071794;28;20070;-71
2021/03/29 11:45:47;;;;;;;6.10;2.33;;;11.50;32.30;;;;;;5071952;28;20040;-71
2021/03/29 11:48:13;;;;;;;8.35;2.58;;;11.60;32.30;;;;;;5073346;28;20036;-78
2021/03/29 11:50:39;;;;;;;2.90;1.90;;;11.60;32.10;;;;;;5077367;28;20025;-70
2021/03/29 11:53:05;;;;;;;7.60;2.33;;;11.70;32.40;;;;;;5079406;28;20404;-78
2021/03/29 11:55:31;;;;;;;5.32;2.40;;;11.50;32.70;;;;;;5092886;28;20481;-76
2021/03/29 11:57:57;;;;;;;6.70;2.28;;;11.50;32.80;;;;;;5078974;28;20036;-78
2021/03/29 12:00:49;;;;;;;9.32;2.42;;;11.60;33.10;;;;;;5079843;28;20109;-75
2021/03/29 12:03:25;;;;;;;6.40;1.83;;;11.60;33.00;;;;;;5079065;28;20041;-76
2021/03/29 12:05:58;;;;;;;6.07;2.13;;;11.60;33.10;;;;;;5080368;28;20028;-76
2021/03/29 12:13:36;;;;;;;3.13;2.10;;;11.90;32.90;;;;;;5077110;28;20400;-67
2021/03/29 12:16:03;;;;;;;5.00;2.08;;;11.90;34.70;;;;;;5073048;28;20102;-68
2021/03/29 12:18:38;;;;;;;4.25;1.80;;;12.00;36.50;;;;;;5071668;28;20076;-67
2021/03/29 12:21:08;;;;;;;3.83;1.90;;;12.10;37.40;;;;;;5072901;28;20024;-68
2021/03/29 12:23:36;;;;;;;3.72;1.95;;;12.30;37.00;;;;;;5071427;28;20032;-69
2021/03/29 12:26:03;;;;;;;5.15;1.92;;;12.50;36.10;;;;;;5071408;28;20469;-66
2021/03/29 12:28:31;;;;;;;15.20;10.70;;;12.60;36.80;;;;;;5072238;28;20043;-66
2021/03/29 12:30:58;;;;;;;23.85;16.02;;;12.70;40.30;;;;;;5071384;28;20039;-66
2021/03/29 12:33:25;;;;;;;26.55;17.40;;;12.90;42.00;;;;;;5072577;28;20036;-65
2021/03/29 12:35:57;;;;;;;33.88;20.52;;;13.10;43.70;;;;;;5072016;28;20043;-66
2021/03/29 12:38:30;;;;;;;35.45;22.27;;;13.20;46.70;;;;;;5070962;28;20143;-66
2021/03/29 12:41:00;;;;;;;36.53;24.70;;;13.40;45.70;;;;;;5072832;28;20036;-66
2021/03/29 12:43:36;;;;;;;52.50;34.90;;;13.50;48.10;;;;;;5072251;28;20526;-68
2021/03/29 12:46:04;;;;;;;53.20;35.20;;;13.50;49.40;;;;;;5071496;28;20032;-67
2021/03/29 12:48:31;;;;;;;43.20;22.23;;;13.70;55.20;;;;;;5072827;28;20052;-67
2021/03/29 12:51:03;;;;;;;33.25;17.50;;;13.80;48.00;;;;;;5072420;28;20036;-66
2021/03/29 12:53:29;;;;;;;30.90;19.60;;;14.00;45.30;;;;;;5071178;28;20037;-67
2021/03/29 12:55:56;;;;;;;31.33;18.73;;;14.00;46.60;;;;;;5072489;28;20488;-67
2021/03/29 12:58:24;;;;;;;15.82;10.30;;;14.10;47.20;;;;;;5071991;28;20143;-66
2021/03/29 13:00:51;;;;;;;17.90;13.02;;;14.10;40.30;;;;;;5071115;28;20039;-67
2021/03/29 13:03:19;;;;;;;17.55;10.10;;;14.20;42.10;;;;;;5072102;28;20393;-68
2021/03/29 13:08:18;;;;;;;20.23;10.15;;;14.30;39.90;;;;;;5072015;28;20131;-66
2021/03/29 13:13:13;;;;;;;17.90;11.18;;;14.40;41.30;;;;;;5070593;28;20496;-65
2021/03/29 13:15:39;;;;;;;11.35;6.90;;;14.50;39.40;;;;;;5070888;28;20473;-69
2021/03/29 13:18:05;;;;;;;13.35;7.70;;;14.50;39.00;;;;;;5070750;28;20085;-67
2021/03/29 13:20:31;;;;;;;11.00;8.50;;;14.60;38.60;;;;;;5071949;28;20049;-65